Blue Star Naxos — SZUI — position and weather

sailwx.info

Track history (hours):
 
Tides and Currents Weather Stations Pressure Air Temp Water Temp Dewpoint Dewpoint Depression Visibility Wind Speed Wind Dir Waves Ship Positions

Blue Star Naxos

Last reported at 2015-May-26 08:33 UTC. Time now 2015-May-26 09:51 UTC.
Position N 37°15' E 024°52'.

Length 124 m; draft 5 m.

Type: Passenger vessel. MMSI: 239923000.

Date/timePositionNaut miles runAvg speedWind from/ knotsBaromVisibWave heightAir tempDewpointWater temp
2015-May-26 08:33N 37°15' E 024°52'1615.9
2015-May-26 07:32N 37°05' E 025°09'1010.6
2015-May-26 06:34N 37°06' E 025°22'9 8.8
2015-May-26 05:33N 37°12' E 025°30'1616.0
2015-May-26 04:33N 37°05' E 025°47'1514.1
2015-May-26 03:30N 36°50' E 025°50'9 9.4
2015-May-26 02:33N 36°43' E 025°57'5 2.7
2015-May-26 00:32N 36°41' E 026°03'1817.8
2015-May-25 23:33N 36°50' E 025°44'1110.3
2015-May-25 22:29N 37°01' E 025°48'1616.7
2015-May-25 21:33N 37°12' E 025°34'1111.4
2015-May-25 20:33N 37°06' E 025°22'1110.5
2015-May-25 19:33N 37°05' E 025°09'1212.4
2015-May-25 18:33N 37°12' E 024°56'5020.8
2015-May-25 16:10N 37°35' E 024°01'1321.4
2015-May-25 15:34N 37°38' E 023°45'1919.1
2015-May-25 14:33N 37°56' E 023°38'1 0.6
2015-May-25 13:33N 37°57' E 023°38'0 0.0
2015-May-25 12:33N 37°57' E 023°38'1212.4
2015-May-25 11:34N 37°45' E 023°43'2620.7
2015-May-25 10:19N 37°32' E 024°12'3720.9
2015-May-25 08:33N 37°15' E 024°53'1616.1
2015-May-25 07:32N 37°05' E 025°09'1010.2
2015-May-25 06:33N 37°07' E 025°21'6 6.4
2015-May-25 05:33N 37°01' E 025°19'1312.1
2015-May-25 04:31N 36°52' E 025°31'9 9.6
2015-May-25 03:33N 36°55' E 025°42'6 2.1
2015-May-25 00:31N 36°51' E 025°48'1010.7
2015-May-24 23:33N 36°54' E 025°36'13 9.6
2015-May-24 22:15N 36°58' E 025°21'812.1
2015-May-24 21:33N 37°06' E 025°22'9 8.9
2015-May-24 20:33N 37°09' E 025°12'6 6.4
2015-May-24 19:34N 37°12' E 025°05'1615.6
2015-May-24 18:33N 37°26' E 024°57'5719.0
2015-May-24 15:33N 37°39' E 023°46'1918.7
2015-May-24 14:33N 37°56' E 023°38'1 0.6
2015-May-24 13:33N 37°57' E 023°38'0 0.0
2015-May-24 12:33N 37°57' E 023°38'1414.0
2015-May-24 11:33N 37°44' E 023°44'6321.1
2015-May-24 08:34N 37°14' E 024°54'1414.3
2015-May-24 07:33N 37°05' E 025°09'1110.8
2015-May-24 06:33N 37°06' E 025°22'1515.1
2015-May-24 05:33N 36°51' E 025°22'2220.8
2015-May-24 04:30N 36°29' E 025°22'7 6.9
2015-May-24 03:33N 36°23' E 025°23'1010.4
2015-May-24 02:33N 36°17' E 025°34'1110.4
2015-May-24 01:33N 36°21' E 025°46'1 1.1
2015-May-24 00:33N 36°20' E 025°45'2019.9
2015-May-23 23:33N 36°22' E 025°20'5 4.8
2015-May-23 22:33N 36°26' E 025°24'2519.1
2015-May-23 21:14N 36°51' E 025°22'1420.8
2015-May-23 20:33N 37°04' E 025°18'8 8.0
2015-May-23 19:33N 37°08' E 025°09'9 9.4
2015-May-23 18:33N 37°11' E 024°58'6421.2
2015-May-23 15:33N 37°39' E 023°46'1918.8
2015-May-23 14:33N 37°56' E 023°38'0 0.5
2015-May-23 13:33N 37°57' E 023°38'0 0.0
2015-May-23 12:33N 37°57' E 023°38'1010.5
2015-May-23 11:33N 37°47' E 023°42'2721.2
2015-May-23 10:16N 37°32' E 024°12'3721.5
2015-May-23 08:34N 37°15' E 024°52'1616.3
2015-May-23 07:33N 37°05' E 025°09'1110.6
2015-May-23 06:34N 37°06' E 025°22'5 5.1
2015-May-23 05:33N 37°02' E 025°18'1413.6
2015-May-23 04:32N 36°52' E 025°31'9 9.4
2015-May-23 03:33N 36°55' E 025°42'8 1.9
2015-May-22 23:23N 36°50' E 025°49'1113.8
2015-May-22 22:33N 36°54' E 025°36'10 9.3
2015-May-22 21:32N 36°54' E 025°24'1212.4
2015-May-22 20:33N 37°06' E 025°22'1110.6
2015-May-22 19:33N 37°05' E 025°09'1313.1
2015-May-22 18:34N 37°13' E 024°55'6321.1
2015-May-22 15:34N 37°40' E 023°43'1717.3
2015-May-22 14:33N 37°57' E 023°38'0 0.0
2015-May-22 13:33N 37°57' E 023°38'0 0.0
2015-May-22 12:33N 37°57' E 023°38'1010.1
2015-May-22 11:33N 37°47' E 023°42'6421.5
2015-May-22 08:33N 37°15' E 024°53'1615.4
2015-May-22 07:29N 37°05' E 025°09'1111.4
2015-May-22 06:34N 37°06' E 025°22'1515.3
2015-May-22 05:33N 37°09' E 025°41'1817.7
2015-May-22 04:33N 36°52' E 025°49'8 8.2
2015-May-22 03:31N 36°44' E 025°50'2121.9
2015-May-22 02:33N 36°37' E 026°15'2 1.5
2015-May-22 01:33N 36°38' E 026°14'2221.9
2015-May-22 00:33N 36°45' E 025°47'8 8.1
2015-May-21 23:33N 36°53' E 025°49'1717.5
2015-May-21 22:34N 37°09' E 025°41'1514.9
2015-May-21 21:33N 37°06' E 025°22'1211.4
2015-May-21 20:33N 37°05' E 025°08'1111.5
2015-May-21 19:33N 37°16' E 025°03'1211.7
2015-May-21 18:33N 37°26' E 024°57'5819.3
2015-May-21 15:33N 37°39' E 023°45'19 5.6
2015-May-21 12:13N 37°57' E 023°38'1116.2
2015-May-21 11:33N 37°46' E 023°42'2721.2
2015-May-21 10:16N 37°33' E 024°12'3621.3
2015-May-21 08:34N 37°15' E 024°52'1715.3
2015-May-21 07:27N 37°05' E 025°09'1111.8
2015-May-21 06:33N 37°06' E 025°22'7 7.2
2015-May-21 05:33N 37°12' E 025°28'1815.5
2015-May-21 04:23N 37°02' E 025°48'1212.0
2015-May-21 03:24N 36°50' E 025°50'910.3
2015-May-21 02:33N 36°43' E 025°56'9 4.7
2015-May-21 00:33N 36°40' E 026°07'2120.7
2015-May-20 23:33N 36°48' E 025°43'10 9.8
2015-May-20 22:33N 36°57' E 025°48'1615.8
2015-May-20 21:34N 37°11' E 025°38'1312.9
2015-May-20 20:34N 37°06' E 025°22'1110.3
2015-May-20 19:31N 37°05' E 025°09'1212.7
2015-May-20 18:34N 37°12' E 024°56'6220.8
2015-May-20 15:33N 37°39' E 023°45'1918.7
2015-May-20 14:34N 37°56' E 023°38'0 0.4
2015-May-20 13:33N 37°57' E 023°38'0 0.0
2015-May-20 12:33N 37°57' E 023°38'1010.4
2015-May-20 11:33N 37°47' E 023°42'6421.3
2015-May-20 08:33N 37°15' E 024°52'1716.7
2015-May-20 07:33N 37°05' E 025°09'1010.0
2015-May-20 06:34N 37°07' E 025°21'6 6.4
2015-May-20 05:34N 37°01' E 025°19'1312.5
2015-May-20 04:34N 36°52' E 025°31'15 3.7
2015-May-20 00:26N 36°50' E 025°50'1212.9
2015-May-19 23:30N 36°56' E 025°36'13 9.3
2015-May-19 22:06N 36°59' E 025°20'713.6
2015-May-19 21:33N 37°06' E 025°22'1110.1
2015-May-19 20:30N 37°07' E 025°09'5 5.8
2015-May-19 19:33N 37°12' E 025°05'1615.7
2015-May-19 18:32N 37°26' E 024°57'5719.3
2015-May-19 15:33N 37°39' E 023°46'1818.4
2015-May-19 14:33N 37°56' E 023°38'1 0.6
2015-May-19 13:33N 37°57' E 023°38'0 0.0
2015-May-19 12:34N 37°57' E 023°38'10 9.6
2015-May-19 11:33N 37°48' E 023°42'6521.5
2015-May-19 08:33N 37°16' E 024°52'1714.2
2015-May-19 07:23N 37°05' E 025°09'1012.5
2015-May-19 06:33N 37°07' E 025°22'7 6.8
2015-May-19 05:33N 37°11' E 025°28'1716.4
2015-May-19 04:32N 37°05' E 025°47'1512.0
2015-May-19 03:17N 36°50' E 025°47'1013.0
2015-May-19 02:33N 36°43' E 025°56'1812.3
2015-May-19 01:04N 36°37' E 026°17'1121.8
2015-May-19 00:33N 36°41' E 026°04'1818.5
2015-May-18 23:33N 36°50' E 025°45'1111.2
2015-May-18 22:33N 37°01' E 025°48'1717.3
2015-May-18 21:33N 37°13' E 025°32'1010.5
2015-May-18 20:34N 37°06' E 025°22'11 7.7
2015-May-18 19:11N 37°05' E 025°09'1219.5
2015-May-18 18:34N 37°12' E 024°57'6220.7
2015-May-18 15:33N 37°39' E 023°46'1818.5
2015-May-18 14:33N 37°56' E 023°38'1 0.6
2015-May-18 13:33N 37°57' E 023°38'0 0.0
2015-May-18 12:33N 37°57' E 023°38'1010.0
2015-May-18 11:33N 37°47' E 023°42'6421.5
2015-May-18 08:33N 37°15' E 024°52'1615.2
2015-May-18 07:29N 37°05' E 025°09'1011.1
2015-May-18 06:34N 37°07' E 025°22'6 5.6
2015-May-18 05:33N 37°02' E 025°19'1312.9
2015-May-18 04:31N 36°52' E 025°30'1010.3
2015-May-18 03:33N 36°54' E 025°43'2 0.5
2015-May-17 23:33N 36°53' E 025°45'1111.0
2015-May-17 22:31N 36°52' E 025°31'1313.4
2015-May-17 21:33N 37°01' E 025°19'10 9.5
2015-May-17 20:33N 37°10' E 025°14'7 6.7
2015-May-17 19:33N 37°10' E 025°05'1817.5
2015-May-17 18:33N 37°26' E 024°57'5719.1
2015-May-17 15:34N 37°39' E 023°46'1918.5
2015-May-17 14:34N 37°56' E 023°38'0 0.5
2015-May-17 13:33N 37°57' E 023°38'0 0.0
2015-May-17 12:33N 37°57' E 023°38'10 9.7
2015-May-17 11:33N 37°48' E 023°42'2120.9
2015-May-17 10:33N 37°35' E 024°04'4321.7
2015-May-17 08:33N 37°15' E 024°52'1714.8
2015-May-17 07:26N 37°05' E 025°09'1112.5
2015-May-17 06:34N 37°06' E 025°22'2617.1
2015-May-17 05:04N 36°41' E 025°25'1122.3
2015-May-17 04:33N 36°30' E 025°22'7 7.3
2015-May-17 03:32N 36°23' E 025°26'0 0.0
2015-May-17 02:32N 36°23' E 025°26'0 0.0
2015-May-17 01:32N 36°23' E 025°26'0 0.0
2015-May-17 00:33N 36°23' E 025°26'0 0.0
2015-May-16 23:32N 36°23' E 025°26'6 6.4
2015-May-16 22:33N 36°28' E 025°21'3718.4
2015-May-16 20:33N 37°05' E 025°19'8 8.1
2015-May-16 19:32N 37°08' E 025°09'1010.1
2015-May-16 18:34N 37°11' E 024°58'6321.1
2015-May-16 15:33N 37°39' E 023°46'1818.4
2015-May-16 14:33N 37°56' E 023°38'1 0.5
2015-May-16 13:33N 37°57' E 023°38'0 0.0
2015-May-16 12:33N 37°57' E 023°38'1010.1
2015-May-16 11:33N 37°47' E 023°42'6421.3
2015-May-16 08:34N 37°15' E 024°51'  
Track history (hours):
 
Tides and Currents Weather Stations Pressure Air Temp Water Temp Dewpoint Dewpoint Depression Visibility Wind Speed Wind Dir Waves Ship Positions

Blue Star Naxos

Last reported at 2015-May-26 08:33 UTC. Time now 2015-May-26 09:51 UTC.
Position N 37°15' E 024°52'.

Length 124 m; draft 5 m.

Type: Passenger vessel. MMSI: 239923000.

Date/timePositionNaut miles runAvg speedWind from/ knotsBaromVisibWave heightAir tempDewpointWater temp
2015-May-26 08:33N 37°15' E 024°52'1615.9
2015-May-26 07:32N 37°05' E 025°09'1010.6
2015-May-26 06:34N 37°06' E 025°22'9 8.8
2015-May-26 05:33N 37°12' E 025°30'1616.0
2015-May-26 04:33N 37°05' E 025°47'1514.1
2015-May-26 03:30N 36°50' E 025°50'9 9.4
2015-May-26 02:33N 36°43' E 025°57'5 2.7
2015-May-26 00:32N 36°41' E 026°03'1817.8
2015-May-25 23:33N 36°50' E 025°44'1110.3
2015-May-25 22:29N 37°01' E 025°48'1616.7
2015-May-25 21:33N 37°12' E 025°34'1111.4
2015-May-25 20:33N 37°06' E 025°22'1110.5
2015-May-25 19:33N 37°05' E 025°09'1212.4
2015-May-25 18:33N 37°12' E 024°56'5020.8
2015-May-25 16:10N 37°35' E 024°01'1321.4
2015-May-25 15:34N 37°38' E 023°45'1919.1
2015-May-25 14:33N 37°56' E 023°38'1 0.6
2015-May-25 13:33N 37°57' E 023°38'0 0.0
2015-May-25 12:33N 37°57' E 023°38'1212.4
2015-May-25 11:34N 37°45' E 023°43'2620.7
2015-May-25 10:19N 37°32' E 024°12'3720.9
2015-May-25 08:33N 37°15' E 024°53'1616.1
2015-May-25 07:32N 37°05' E 025°09'1010.2
2015-May-25 06:33N 37°07' E 025°21'6 6.4
2015-May-25 05:33N 37°01' E 025°19'1312.1
2015-May-25 04:31N 36°52' E 025°31'9 9.6
2015-May-25 03:33N 36°55' E 025°42'6 2.1
2015-May-25 00:31N 36°51' E 025°48'1010.7
2015-May-24 23:33N 36°54' E 025°36'13 9.6
2015-May-24 22:15N 36°58' E 025°21'812.1
2015-May-24 21:33N 37°06' E 025°22'9 8.9
2015-May-24 20:33N 37°09' E 025°12'6 6.4
2015-May-24 19:34N 37°12' E 025°05'1615.6
2015-May-24 18:33N 37°26' E 024°57'5719.0
2015-May-24 15:33N 37°39' E 023°46'1918.7
2015-May-24 14:33N 37°56' E 023°38'1 0.6
2015-May-24 13:33N 37°57' E 023°38'0 0.0
2015-May-24 12:33N 37°57' E 023°38'1414.0
2015-May-24 11:33N 37°44' E 023°44'6321.1
2015-May-24 08:34N 37°14' E 024°54'1414.3
2015-May-24 07:33N 37°05' E 025°09'1110.8
2015-May-24 06:33N 37°06' E 025°22'1515.1
2015-May-24 05:33N 36°51' E 025°22'2220.8
2015-May-24 04:30N 36°29' E 025°22'7 6.9
2015-May-24 03:33N 36°23' E 025°23'1010.4
2015-May-24 02:33N 36°17' E 025°34'1110.4
2015-May-24 01:33N 36°21' E 025°46'1 1.1
2015-May-24 00:33N 36°20' E 025°45'2019.9
2015-May-23 23:33N 36°22' E 025°20'5 4.8
2015-May-23 22:33N 36°26' E 025°24'2519.1
2015-May-23 21:14N 36°51' E 025°22'1420.8
2015-May-23 20:33N 37°04' E 025°18'8 8.0
2015-May-23 19:33N 37°08' E 025°09'9 9.4
2015-May-23 18:33N 37°11' E 024°58'6421.2
2015-May-23 15:33N 37°39' E 023°46'1918.8
2015-May-23 14:33N 37°56' E 023°38'0 0.5
2015-May-23 13:33N 37°57' E 023°38'0 0.0
2015-May-23 12:33N 37°57' E 023°38'1010.5
2015-May-23 11:33N 37°47' E 023°42'2721.2
2015-May-23 10:16N 37°32' E 024°12'3721.5
2015-May-23 08:34N 37°15' E 024°52'1616.3
2015-May-23 07:33N 37°05' E 025°09'1110.6
2015-May-23 06:34N 37°06' E 025°22'5 5.1
2015-May-23 05:33N 37°02' E 025°18'1413.6
2015-May-23 04:32N 36°52' E 025°31'9 9.4
2015-May-23 03:33N 36°55' E 025°42'8 1.9
2015-May-22 23:23N 36°50' E 025°49'1113.8
2015-May-22 22:33N 36°54' E 025°36'10 9.3
2015-May-22 21:32N 36°54' E 025°24'1212.4
2015-May-22 20:33N 37°06' E 025°22'1110.6
2015-May-22 19:33N 37°05' E 025°09'1313.1
2015-May-22 18:34N 37°13' E 024°55'6321.1
2015-May-22 15:34N 37°40' E 023°43'1717.3
2015-May-22 14:33N 37°57' E 023°38'0 0.0
2015-May-22 13:33N 37°57' E 023°38'0 0.0
2015-May-22 12:33N 37°57' E 023°38'1010.1
2015-May-22 11:33N 37°47' E 023°42'6421.5
2015-May-22 08:33N 37°15' E 024°53'1615.4
2015-May-22 07:29N 37°05' E 025°09'1111.4
2015-May-22 06:34N 37°06' E 025°22'1515.3
2015-May-22 05:33N 37°09' E 025°41'1817.7
2015-May-22 04:33N 36°52' E 025°49'8 8.2
2015-May-22 03:31N 36°44' E 025°50'2121.9
2015-May-22 02:33N 36°37' E 026°15'2 1.5
2015-May-22 01:33N 36°38' E 026°14'2221.9
2015-May-22 00:33N 36°45' E 025°47'8 8.1
2015-May-21 23:33N 36°53' E 025°49'1717.5
2015-May-21 22:34N 37°09' E 025°41'1514.9
2015-May-21 21:33N 37°06' E 025°22'1211.4
2015-May-21 20:33N 37°05' E 025°08'1111.5
2015-May-21 19:33N 37°16' E 025°03'1211.7
2015-May-21 18:33N 37°26' E 024°57'5819.3
2015-May-21 15:33N 37°39' E 023°45'19 5.6
2015-May-21 12:13N 37°57' E 023°38'1116.2
2015-May-21 11:33N 37°46' E 023°42'2721.2
2015-May-21 10:16N 37°33' E 024°12'3621.3
2015-May-21 08:34N 37°15' E 024°52'1715.3
2015-May-21 07:27N 37°05' E 025°09'1111.8
2015-May-21 06:33N 37°06' E 025°22'7 7.2
2015-May-21 05:33N 37°12' E 025°28'1815.5
2015-May-21 04:23N 37°02' E 025°48'1212.0
2015-May-21 03:24N 36°50' E 025°50'910.3
2015-May-21 02:33N 36°43' E 025°56'9 4.7
2015-May-21 00:33N 36°40' E 026°07'2120.7
2015-May-20 23:33N 36°48' E 025°43'10 9.8
2015-May-20 22:33N 36°57' E 025°48'1615.8
2015-May-20 21:34N 37°11' E 025°38'1312.9
2015-May-20 20:34N 37°06' E 025°22'1110.3
2015-May-20 19:31N 37°05' E 025°09'1212.7
2015-May-20 18:34N 37°12' E 024°56'6220.8
2015-May-20 15:33N 37°39' E 023°45'1918.7
2015-May-20 14:34N 37°56' E 023°38'0 0.4
2015-May-20 13:33N 37°57' E 023°38'0 0.0
2015-May-20 12:33N 37°57' E 023°38'1010.4
2015-May-20 11:33N 37°47' E 023°42'6421.3
2015-May-20 08:33N 37°15' E 024°52'1716.7
2015-May-20 07:33N 37°05' E 025°09'1010.0
2015-May-20 06:34N 37°07' E 025°21'6 6.4
2015-May-20 05:34N 37°01' E 025°19'1312.5
2015-May-20 04:34N 36°52' E 025°31'15 3.7
2015-May-20 00:26N 36°50' E 025°50'1212.9
2015-May-19 23:30N 36°56' E 025°36'13 9.3
2015-May-19 22:06N 36°59' E 025°20'713.6
2015-May-19 21:33N 37°06' E 025°22'1110.1
2015-May-19 20:30N 37°07' E 025°09'5 5.8
2015-May-19 19:33N 37°12' E 025°05'1615.7
2015-May-19 18:32N 37°26' E 024°57'5719.3
2015-May-19 15:33N 37°39' E 023°46'1818.4
2015-May-19 14:33N 37°56' E 023°38'1 0.6
2015-May-19 13:33N 37°57' E 023°38'0 0.0
2015-May-19 12:34N 37°57' E 023°38'10 9.6
2015-May-19 11:33N 37°48' E 023°42'6521.5
2015-May-19 08:33N 37°16' E 024°52'1714.2
2015-May-19 07:23N 37°05' E 025°09'1012.5
2015-May-19 06:33N 37°07' E 025°22'7 6.8
2015-May-19 05:33N 37°11' E 025°28'1716.4
2015-May-19 04:32N 37°05' E 025°47'1512.0
2015-May-19 03:17N 36°50' E 025°47'1013.0
2015-May-19 02:33N 36°43' E 025°56'1812.3
2015-May-19 01:04N 36°37' E 026°17'1121.8
2015-May-19 00:33N 36°41' E 026°04'1818.5
2015-May-18 23:33N 36°50' E 025°45'1111.2
2015-May-18 22:33N 37°01' E 025°48'1717.3
2015-May-18 21:33N 37°13' E 025°32'1010.5
2015-May-18 20:34N 37°06' E 025°22'11 7.7
2015-May-18 19:11N 37°05' E 025°09'1219.5
2015-May-18 18:34N 37°12' E 024°57'6220.7
2015-May-18 15:33N 37°39' E 023°46'1818.5
2015-May-18 14:33N 37°56' E 023°38'1 0.6
2015-May-18 13:33N 37°57' E 023°38'0 0.0
2015-May-18 12:33N 37°57' E 023°38'1010.0
2015-May-18 11:33N 37°47' E 023°42'6421.5
2015-May-18 08:33N 37°15' E 024°52'1615.2
2015-May-18 07:29N 37°05' E 025°09'1011.1
2015-May-18 06:34N 37°07' E 025°22'6 5.6
2015-May-18 05:33N 37°02' E 025°19'1312.9
2015-May-18 04:31N 36°52' E 025°30'1010.3
2015-May-18 03:33N 36°54' E 025°43'2 0.5
2015-May-17 23:33N 36°53' E 025°45'1111.0
2015-May-17 22:31N 36°52' E 025°31'1313.4
2015-May-17 21:33N 37°01' E 025°19'10 9.5
2015-May-17 20:33N 37°10' E 025°14'7 6.7
2015-May-17 19:33N 37°10' E 025°05'1817.5
2015-May-17 18:33N 37°26' E 024°57'5719.1
2015-May-17 15:34N 37°39' E 023°46'1918.5
2015-May-17 14:34N 37°56' E 023°38'0 0.5
2015-May-17 13:33N 37°57' E 023°38'0 0.0
2015-May-17 12:33N 37°57' E 023°38'10 9.7
2015-May-17 11:33N 37°48' E 023°42'2120.9
2015-May-17 10:33N 37°35' E 024°04'4321.7
2015-May-17 08:33N 37°15' E 024°52'1714.8
2015-May-17 07:26N 37°05' E 025°09'1112.5
2015-May-17 06:34N 37°06' E 025°22'2617.1
2015-May-17 05:04N 36°41' E 025°25'1122.3
2015-May-17 04:33N 36°30' E 025°22'7 7.3
2015-May-17 03:32N 36°23' E 025°26'0 0.0
2015-May-17 02:32N 36°23' E 025°26'0 0.0
2015-May-17 01:32N 36°23' E 025°26'0 0.0
2015-May-17 00:33N 36°23' E 025°26'0 0.0
2015-May-16 23:32N 36°23' E 025°26'6 6.4
2015-May-16 22:33N 36°28' E 025°21'3718.4
2015-May-16 20:33N 37°05' E 025°19'8 8.1
2015-May-16 19:32N 37°08' E 025°09'1010.1
2015-May-16 18:34N 37°11' E 024°58'6321.1
2015-May-16 15:33N 37°39' E 023°46'1818.4
2015-May-16 14:33N 37°56' E 023°38'1 0.5
2015-May-16 13:33N 37°57' E 023°38'0 0.0
2015-May-16 12:33N 37°57' E 023°38'1010.1
2015-May-16 11:33N 37°47' E 023°42'6421.3
2015-May-16 08:34N 37°15' E 024°51'  

Dump ship's entire track history